METAR Data
IDs: Format: Raw Decoded Include TAF

Data at: 2008 UTC 21 Sep 2021

KJBR 211953Z AUTO 31008KT 10SM FEW010 25/22 A3004 RMK AO2 RAE07 SLP169 P0000 T02500222 $
KJBR 211914Z AUTO 31007KT 280V340 10SM SCT009 SCT044 SCT110 23/22 A3005 RMK AO2 RAE07 P0000 T02280217 $
KJBR 211853Z AUTO 30009KT 10SM -RA FEW032 SCT075 BKN095 23/22 A3005 RMK AO2 RAE03B21 SLP174 P0002 T02280217 $
KJBR 211804Z AUTO 30011KT 10SM SCT006 SCT039 BKN065 23/22 A3006 RMK AO2 RAE03 P0000 T02330222 $
KJBR 211753Z AUTO 30011KT 10SM -RA FEW018 BKN090 OVC110 24/22 A3006 RMK AO2 RAB15 PRESRR SLP176 P0002 60002 T02440222 10267 20228 53003 $
KJBR 211653Z AUTO 19004KT 10SM FEW070 SCT095 25/21 A3003 RMK AO2 RAE38 SLP165 P0000 T02500211 $
KJBR 211553Z AUTO 00000KT 10SM -RA FEW075 SCT090 BKN110 23/21 A3006 RMK AO2 RAB13 PRESRR SLP177 P0000 T02330211 $
KJBR 211453Z AUTO 10SM FEW120 27/21 A3005 RMK AO2 LTG DSNT SE SLP173 T02670211 51029 $
KJBR 211353Z AUTO 33010G19KT 10SM FEW100 26/21 A3005 RMK AO2 SLP171 T02560206 $
KJBR 211253Z AUTO 27008KT 10SM FEW095 23/23 A3001 RMK AO2 PRESRR SLP160 T02330228 $
KJBR 211153Z AUTO 20007KT 10SM CLR 23/22 A2997 RMK AO2 SLP144 T02280222 10228 20217 50008 $
KJBR 211053Z AUTO 34004KT 5SM BR FEW041 SCT047 BKN060 22/22 A2998 RMK AO2 LTG DSNT W SLP149 T02170217 $
KJBR 211024Z AUTO 00000KT 7SM SCT002 BKN060 BKN070 22/22 A2997 RMK AO2 T02220217 $
KJBR 210953Z AUTO 00000KT 4SM BR OVC002 22/22 A2996 RMK AO2 SLP141 T02170217 $
KJBR 210939Z AUTO 21003KT 2SM BR OVC002 22/22 A2996 RMK AO2 VIS 1 1/2V2 1/2 T02170217 $
KJBR 210853Z AUTO 19003KT 10SM OVC004 22/22 A2994 RMK AO2 SLP136 T02220217 55000 $
KJBR 210815Z AUTO 17004KT 10SM BKN004 22/22 A2993 RMK AO2 T02220217 $
KJBR 210804Z AUTO 18003KT 10SM BKN005 22/22 A2993 RMK AO2 T02220217 $
KJBR 210753Z AUTO 00000KT 10SM SCT005 22/22 A2993 RMK AO2 SLP131 T02220217 $
KJBR 210728Z AUTO 15003KT 10SM FEW005 22/22 A2994 RMK AO2 T02220217 $
KJBR 210653Z AUTO 16004KT 10SM CLR 22/22 A2994 RMK AO2 SLP136 T02220217 $
KJBR 210553Z AUTO 17003KT 10SM CLR 23/22 A2994 RMK AO2 SLP135 T02280222 10283 20228 403170206 53004 $
KJBR 210453Z AUTO 00000KT 10SM CLR 23/22 A2994 RMK AO2 SLP133 T02330222 $
KJBR 210353Z AUTO 16007KT 10SM CLR 24/22 A2993 RMK AO2 SLP132 T02390222 $
KJBR 210253Z AUTO 19004KT 10SM CLR 24/22 A2993 RMK AO2 SLP131 T02440222 53013 $
KJBR 210153Z AUTO 15008KT 10SM CLR 25/22 A2991 RMK AO2 SLP124 T02500222 $
KJBR 210053Z AUTO 16006KT 10SM CLR 26/23 A2990 RMK AO2 SLP121 T02610228 $
KJBR 202353Z AUTO 14015KT 10SM SCT041 BKN050 28/22 A2989 RMK AO2 SLP118 T02830222 10317 20283 53000 $
KJBR 202253Z AUTO 18006KT 10SM CLR 31/21 A2988 RMK AO2 SLP115 T03060211 $
KJBR 202153Z AUTO 23007KT 10SM CLR 31/21 A2988 RMK AO2 SLP114 T03110206 $
KJBR 202053Z AUTO 19007KT 150V220 10SM FEW042 31/21 A2989 RMK AO2 SLP118 T03110206 56015 $